Time;durP1;ratioP1;P1;durP2;ratioP2;P2;SDS_P1;SDS_P2;PMS_P1;PMS_P2;Temp;Humidity;BMP_temperature;BMP_pressure;BME280_temperature;BME280_humidity;BME280_pressure;Samples;Min_cycle;Max_cycle;Signal;HPM_P1;HPM_P2
2022/06/20 00:01:00;;;;;;;6.18;1.60;;;21.10;61.20;;;;;;5044247;28;20034;-67
2022/06/20 00:03:37;;;;;;;4.53;1.35;;;21.10;61.30;;;;;;5044577;28;20048;-67
2022/06/20 00:06:03;;;;;;;4.97;1.40;;;21.10;61.20;;;;;;5062963;28;20057;-67
2022/06/20 00:08:28;;;;;;;5.57;1.67;;;21.00;61.20;;;;;;5044348;28;20068;-67
2022/06/20 00:10:54;;;;;;;5.22;1.38;;;21.10;61.40;;;;;;5043833;28;20155;-67
2022/06/20 00:13:22;;;;;;;5.25;1.67;;;21.00;61.40;;;;;;5059111;28;20378;-67
2022/06/20 00:15:49;;;;;;;6.18;1.58;;;21.00;61.40;;;;;;5045038;28;20111;-67
2022/06/20 00:18:14;;;;;;;4.55;1.33;;;21.10;61.40;;;;;;5046023;28;20017;-67
2022/06/20 00:20:40;;;;;;;5.80;1.50;;;21.00;61.30;;;;;;5043159;28;20055;-67
2022/06/20 00:23:06;;;;;;;6.45;1.77;;;21.00;61.30;;;;;;5044996;28;20055;-67
2022/06/20 00:25:32;;;;;;;5.63;1.70;;;21.00;61.40;;;;;;5043810;28;20237;-67
2022/06/20 00:27:57;;;;;;;6.88;1.40;;;21.00;61.40;;;;;;5043923;28;20048;-67
2022/06/20 00:30:23;;;;;;;6.97;1.50;;;21.00;61.40;;;;;;5043690;28;20060;-67
2022/06/20 00:32:49;;;;;;;4.47;1.35;;;21.00;61.30;;;;;;5045283;28;20032;-67
2022/06/20 00:35:15;;;;;;;5.03;1.50;;;21.00;61.30;;;;;;5044371;28;20033;-67
2022/06/20 00:37:41;;;;;;;7.05;1.48;;;21.00;61.30;;;;;;5043710;28;20053;-67
2022/06/20 00:40:21;;;;;;;4.07;1.17;;;20.90;61.40;;;;;;5061196;28;20074;-67
2022/06/20 00:42:47;;;;;;;5.72;1.40;;;21.00;61.40;;;;;;5041548;28;20033;-67
2022/06/20 00:45:12;;;;;;;4.97;1.45;;;21.00;61.40;;;;;;5045563;28;20056;-67
2022/06/20 00:47:38;;;;;;;5.82;1.60;;;21.00;61.40;;;;;;5061263;28;20497;-67
2022/06/20 00:50:16;;;;;;;5.15;1.30;;;21.00;61.40;;;;;;5061944;28;20045;-67
2022/06/20 00:52:48;;;;;;;4.47;1.20;;;21.00;61.30;;;;;;5058487;28;20390;-67
2022/06/20 00:55:21;;;;;;;4.13;1.30;;;20.90;61.30;;;;;;5043431;28;20032;-67
2022/06/20 00:57:48;;;;;;;4.20;1.58;;;20.90;61.50;;;;;;5045433;28;20086;-67
2022/06/20 01:00:24;;;;;;;4.60;1.30;;;20.90;61.30;;;;;;5060416;28;20076;-67
2022/06/20 01:03:01;;;;;;;4.82;1.50;;;20.90;61.30;;;;;;5045693;28;20478;-67
2022/06/20 01:05:52;;;;;;;5.38;1.25;;;20.90;61.40;;;;;;5059718;28;20104;-67
2022/06/20 01:08:52;;;;;;;5.20;1.30;;;20.90;61.40;;;;;;5044164;28;20054;-67
2022/06/20 01:11:27;;;;;;;5.20;1.30;;;20.90;61.40;;;;;;4998858;28;20718;-67
2022/06/20 01:13:53;;;;;;;;;;;20.90;61.30;;;;;;4998169;28;20072;-70
2022/06/20 01:16:25;;;;;;;6.70;1.65;;;20.90;61.40;;;;;;4997586;28;19944;-67
2022/06/20 01:18:51;;;;;;;5.30;1.30;;;20.90;61.40;;;;;;5003010;28;20615;-67
2022/06/20 01:21:19;;;;;;;2.83;1.20;;;20.90;61.40;;;;;;4986662;28;20049;-67
2022/06/20 01:23:50;;;;;;;4.65;1.30;;;20.90;61.40;;;;;;4981640;28;20037;-67
2022/06/20 01:26:27;;;;;;;5.72;1.42;;;20.90;61.40;;;;;;4998289;28;20417;-67
2022/06/20 01:28:56;;;;;;;5.88;1.40;;;20.90;61.40;;;;;;4985062;28;20037;-67
2022/06/20 01:31:23;;;;;;;5.20;1.20;;;20.80;61.40;;;;;;4982426;28;20026;-67
2022/06/20 01:33:49;;;;;;;4.43;1.40;;;20.90;62.50;;;;;;4983177;28;20109;-67
2022/06/20 01:38:59;;;;;;;5.00;1.40;;;20.90;61.40;;;;;;4999345;28;20041;-67
2022/06/20 01:44:10;;;;;;;;;;;20.80;61.40;;;;;;4983994;28;20144;-67
2022/06/20 01:46:36;;;;;;;4.38;1.48;;;20.80;61.40;;;;;;5000293;28;20004;-67
2022/06/20 01:49:15;;;;;;;2.70;1.00;;;20.80;61.40;;;;;;5040613;28;20497;-67
2022/06/20 01:52:04;;;;;;;5.40;1.20;;;20.80;61.40;;;;;;5026368;28;20025;-67
2022/06/20 01:54:30;;;;;;;5.43;1.40;;;20.80;61.50;;;;;;5042792;28;20049;-67
2022/06/20 01:56:56;;;;;;;4.35;1.48;;;20.80;61.40;;;;;;5044462;28;20560;-67
2022/06/20 01:59:25;;;;;;;5.65;1.60;;;20.80;61.40;;;;;;5063178;28;20124;-68
2022/06/20 02:01:50;;;;;;;4.65;1.50;;;20.80;61.50;;;;;;5061079;28;20433;-67
2022/06/20 02:04:18;;;;;;;5.15;1.40;;;20.80;61.50;;;;;;5047201;28;20079;-67
2022/06/20 02:06:44;;;;;;;4.68;1.38;;;20.80;61.50;;;;;;5063095;28;20032;-67
2022/06/20 02:09:11;;;;;;;5.53;1.27;;;20.80;61.50;;;;;;5061284;28;20037;-67
2022/06/20 02:11:45;;;;;;;4.97;1.45;;;20.80;61.50;;;;;;5047427;28;20115;-67
2022/06/20 02:14:20;;;;;;;6.25;1.80;;;20.80;61.50;;;;;;5047165;28;20037;-67
2022/06/20 02:16:46;;;;;;;;;;;20.80;61.50;;;;;;5045880;28;20414;-67
2022/06/20 02:19:14;;;;;;;5.20;1.40;;;20.80;61.50;;;;;;5062706;28;19924;-67
2022/06/20 02:21:40;;;;;;;5.60;1.48;;;20.80;61.50;;;;;;5028070;28;20032;-67
2022/06/20 02:24:10;;;;;;;4.25;1.55;;;20.80;61.50;;;;;;5048458;28;20025;-67
2022/06/20 02:26:37;;;;;;;5.30;1.50;;;20.80;62.60;;;;;;5044187;28;20543;-67
2022/06/20 02:29:23;;;;;;;4.40;1.30;;;20.80;61.60;;;;;;5047628;28;20104;-67
2022/06/20 02:31:55;;;;;;;4.32;1.30;;;20.70;61.50;;;;;;5045001;28;20025;-67
2022/06/20 02:34:28;;;;;;;5.20;1.42;;;20.70;61.50;;;;;;5059083;28;20044;-67
2022/06/20 02:36:54;;;;;;;4.40;1.42;;;20.70;61.60;;;;;;5045802;28;20017;-67
2022/06/20 02:39:20;;;;;;;4.32;1.50;;;20.80;61.70;;;;;;5063887;28;20029;-67
2022/06/20 02:41:46;;;;;;;7.90;1.58;;;20.70;61.60;;;;;;5043877;28;20047;-67
2022/06/20 02:44:15;;;;;;;5.00;1.30;;;20.70;61.60;;;;;;5059638;28;20421;-67
2022/06/20 02:46:41;;;;;;;2.53;1.10;;;20.70;61.60;;;;;;5062431;28;20099;-67
2022/06/20 02:49:09;;;;;;;4.55;1.42;;;20.70;61.60;;;;;;5062700;28;20045;-67
2022/06/20 02:51:40;;;;;;;4.20;1.30;;;20.70;61.60;;;;;;5060817;28;20029;-67
2022/06/20 02:54:06;;;;;;;5.30;1.42;;;20.70;61.70;;;;;;5044989;28;20017;-67
2022/06/20 02:56:43;;;;;;;3.95;1.23;;;20.70;61.70;;;;;;5046242;28;20029;-67
2022/06/20 02:59:18;;;;;;;4.47;1.40;;;20.70;61.70;;;;;;5061183;28;20044;-67
2022/06/20 03:01:46;;;;;;;5.18;1.40;;;20.70;61.70;;;;;;5060490;28;20025;-67
2022/06/20 03:04:12;;;;;;;3.33;1.20;;;20.70;61.80;;;;;;5061259;28;20072;-67
2022/06/20 03:06:42;;;;;;;5.05;1.55;;;20.70;61.70;;;;;;5062047;28;20061;-67
2022/06/20 03:09:16;;;;;;;3.33;1.25;;;20.70;61.80;;;;;;5062007;28;20079;-67
2022/06/20 03:11:41;;;;;;;3.85;1.20;;;20.70;61.70;;;;;;5060312;28;20094;-68
2022/06/20 03:14:10;;;;;;;3.80;1.30;;;20.70;61.80;;;;;;5061119;28;20029;-67
2022/06/20 03:16:36;;;;;;;4.20;1.17;;;20.70;61.80;;;;;;5062277;28;20131;-67
2022/06/20 03:19:01;;;;;;;3.03;1.25;;;20.70;61.80;;;;;;5060289;28;20551;-67
2022/06/20 03:21:31;;;;;;;4.10;1.30;;;20.60;61.70;;;;;;5062577;28;20056;-67
2022/06/20 03:23:57;;;;;;;5.38;1.30;;;20.70;61.80;;;;;;5044785;28;20025;-67
2022/06/20 03:26:26;;;;;;;4.97;1.50;;;20.70;61.80;;;;;;5044827;28;20110;-68
2022/06/20 03:28:52;;;;;;;6.43;1.40;;;20.70;61.80;;;;;;5045795;28;20036;-67
2022/06/20 03:31:19;;;;;;;3.67;1.23;;;20.60;61.70;;;;;;5060853;28;20061;-67
2022/06/20 03:33:45;;;;;;;5.00;1.33;;;20.70;61.80;;;;;;5046272;28;20112;-67
2022/06/20 03:36:25;;;;;;;5.00;1.40;;;20.70;62.30;;;;;;5061163;28;20581;-67
2022/06/20 03:38:50;;;;;;;4.88;1.40;;;20.60;61.70;;;;;;5044755;28;20037;-67
2022/06/20 03:41:18;;;;;;;4.90;1.20;;;20.60;61.70;;;;;;5060506;28;20031;-67
2022/06/20 03:43:50;;;;;;;3.42;1.20;;;20.60;62.00;;;;;;5058641;28;20118;-67
2022/06/20 03:46:20;;;;;;;5.63;1.23;;;20.60;61.80;;;;;;5060840;28;20020;-67
2022/06/20 03:49:09;;;;;;;5.82;1.40;;;20.60;61.80;;;;;;5059115;28;20036;-65
2022/06/20 03:51:41;;;;;;;3.17;1.30;;;20.60;61.80;;;;;;5044253;28;20065;-67
2022/06/20 03:54:12;;;;;;;3.60;1.17;;;20.60;61.70;;;;;;5046568;28;20021;-67
2022/06/20 03:57:00;;;;;;;4.82;1.30;;;20.60;61.70;;;;;;5059211;28;20033;-67
2022/06/20 03:59:33;;;;;;;5.20;1.50;;;20.60;61.70;;;;;;5045609;28;20428;-67
2022/06/20 04:02:12;;;;;;;2.85;1.20;;;20.60;61.70;;;;;;5058747;28;20104;-67
2022/06/20 04:05:03;;;;;;;5.45;1.40;;;20.60;61.70;;;;;;5040462;28;20060;-67
2022/06/20 04:07:53;;;;;;;3.60;1.13;;;20.60;61.70;;;;;;5043697;28;20030;-67
2022/06/20 04:10:59;;;;;;;4.90;0.95;;;20.60;61.70;;;;;;5053967;28;20194;-68
2022/06/20 04:13:52;;;;;;;3.70;1.30;;;20.60;61.70;;;;;;5041812;28;20052;-67
2022/06/20 04:16:21;;;;;;;4.78;1.33;;;20.60;61.80;;;;;;5039794;28;20078;-67
2022/06/20 04:19:05;;;;;;;5.30;1.40;;;20.60;61.80;;;;;;5057123;28;20497;-68
2022/06/20 04:21:36;;;;;;;3.13;1.10;;;20.60;61.80;;;;;;5052668;28;20029;-67
2022/06/20 04:24:34;;;;;;;4.50;1.35;;;20.60;61.90;;;;;;5057739;28;20037;-67
2022/06/20 04:27:18;;;;;;;3.60;1.42;;;20.60;61.90;;;;;;5066194;28;20021;-67
2022/06/20 04:29:45;;;;;;;3.63;1.30;;;20.60;61.90;;;;;;5042239;28;20118;-67
2022/06/20 04:32:18;;;;;;;3.67;1.20;;;20.60;62.00;;;;;;5055017;28;20033;-67
2022/06/20 04:34:54;;;;;;;3.72;1.10;;;20.60;62.30;;;;;;5041757;28;20068;-67
2022/06/20 04:37:25;;;;;;;4.00;1.17;;;20.60;62.50;;;;;;5057441;28;20513;-66
2022/06/20 04:40:04;;;;;;;4.05;1.33;;;20.60;62.60;;;;;;5058582;28;20029;-66
2022/06/20 04:42:42;;;;;;;5.07;1.50;;;20.60;62.70;;;;;;5037661;28;20138;-66
2022/06/20 04:45:43;;;;;;;4.72;1.38;;;20.60;62.70;;;;;;5045873;28;21288;-67
2022/06/20 04:48:18;;;;;;;6.93;1.50;;;20.60;62.70;;;;;;5059339;28;20102;-67
2022/06/20 04:50:52;;;;;;;3.05;1.15;;;20.60;62.80;;;;;;5045585;28;20116;-67
2022/06/20 04:53:21;;;;;;;2.78;1.10;;;20.60;62.80;;;;;;5053307;28;20035;-67
2022/06/20 04:55:52;;;;;;;4.53;1.30;;;20.60;62.80;;;;;;5060127;28;20032;-67
2022/06/20 04:58:20;;;;;;;5.38;1.40;;;20.50;63.90;;;;;;5060609;28;20033;-67
2022/06/20 05:00:47;;;;;;;5.25;1.30;;;20.60;63.00;;;;;;5060786;28;20036;-67
2022/06/20 05:03:18;;;;;;;3.13;1.20;;;20.60;62.90;;;;;;5044131;28;20036;-66
2022/06/20 05:05:45;;;;;;;3.58;1.40;;;20.60;63.00;;;;;;5061151;28;20027;-67
2022/06/20 05:08:12;;;;;;;4.60;1.50;;;20.60;63.00;;;;;;5059111;28;20033;-67
2022/06/20 05:10:47;;;;;;;4.32;1.45;;;20.60;63.10;;;;;;5044048;28;20043;-67
2022/06/20 05:13:25;;;;;;;4.35;1.30;;;20.50;63.10;;;;;;5027176;28;20021;-67
2022/06/20 05:15:51;;;;;;;3.40;1.27;;;20.50;63.10;;;;;;5057060;28;20720;-67
2022/06/20 05:18:39;;;;;;;4.55;1.42;;;20.60;63.20;;;;;;5043743;28;20116;-67
2022/06/20 05:21:22;;;;;;;3.85;1.20;;;20.50;63.10;;;;;;5058817;28;20516;-67
2022/06/20 05:23:50;;;;;;;4.65;1.52;;;20.60;63.20;;;;;;5060611;28;20111;-67
2022/06/20 05:26:23;;;;;;;3.53;1.15;;;20.50;63.10;;;;;;5040451;28;20032;-67
2022/06/20 05:28:50;;;;;;;4.82;1.33;;;20.50;63.20;;;;;;5045592;28;20036;-67
2022/06/20 05:31:22;;;;;;;3.13;1.05;;;20.50;63.20;;;;;;5059132;28;20029;-67
2022/06/20 05:33:56;;;;;;;3.65;1.25;;;20.50;63.10;;;;;;5044012;28;20032;-67
2022/06/20 05:36:42;;;;;;;3.28;1.13;;;20.50;63.20;;;;;;5043522;28;20025;-67
2022/06/20 05:39:12;;;;;;;4.35;1.35;;;20.50;63.20;;;;;;5043641;28;20028;-67
2022/06/20 05:41:39;;;;;;;3.95;1.48;;;20.50;63.20;;;;;;5062979;28;20044;-67
2022/06/20 05:44:05;;;;;;;3.78;1.42;;;20.50;63.20;;;;;;5058138;28;20101;-67
2022/06/20 05:46:41;;;;;;;3.97;1.40;;;20.50;63.10;;;;;;5058279;28;20044;-67
2022/06/20 05:49:16;;;;;;;4.05;1.33;;;20.50;63.20;;;;;;5043193;28;20033;-67
2022/06/20 05:51:43;;;;;;;3.03;1.25;;;20.50;63.20;;;;;;5057138;28;20032;-67
2022/06/20 05:54:17;;;;;;;2.85;1.30;;;20.50;63.30;;;;;;5040805;28;20030;-67
2022/06/20 05:56:59;;;;;;;4.55;1.27;;;20.50;63.20;;;;;;5058959;28;20025;-67
2022/06/20 05:59:27;;;;;;;4.82;1.40;;;20.50;63.40;;;;;;5059624;28;20043;-67
2022/06/20 06:01:55;;;;;;;6.18;1.33;;;20.50;63.10;;;;;;5044438;28;20040;-67
2022/06/20 06:04:33;;;;;;;4.68;1.30;;;20.50;63.40;;;;;;5058230;28;20116;-67
2022/06/20 06:07:21;;;;;;;6.28;1.58;;;20.50;63.50;;;;;;5026806;28;20029;-67
2022/06/20 06:10:22;;;;;;;13.27;1.60;;;20.50;63.30;;;;;;5045452;28;20151;-67
2022/06/20 06:13:13;;;;;;;6.20;1.52;;;20.50;63.40;;;;;;5037722;28;20033;-67
2022/06/20 06:16:46;;;;;;;11.77;2.65;;;20.50;64.50;;;;;;5032580;28;20083;-67
2022/06/20 06:18:29;;;;;;;11.93;2.40;;;20.50;66.40;;;;;;5040738;28;20528;-67
2022/06/20 06:20:55;;;;;;;7.65;1.73;;;20.50;66.00;;;;;;5043974;28;20504;-67
2022/06/20 06:23:21;;;;;;;9.65;1.98;;;20.60;65.40;;;;;;5040916;28;20037;-67
2022/06/20 06:25:46;;;;;;;11.05;1.80;;;20.60;65.10;;;;;;5056940;28;20029;-67
2022/06/20 06:28:20;;;;;;;11.38;2.20;;;20.60;65.30;;;;;;5058258;28;20029;-67
2022/06/20 06:30:49;;;;;;;10.55;1.92;;;20.60;64.80;;;;;;5025544;28;20558;-67
2022/06/20 06:33:37;;;;;;;10.48;2.28;;;20.60;65.20;;;;;;5044216;28;20550;-67
2022/06/20 06:36:30;;;;;;;10.50;2.30;;;20.60;64.90;;;;;;5059757;28;20017;-67
2022/06/20 06:39:03;;;;;;;10.68;2.28;;;20.50;65.00;;;;;;5052291;28;20029;-67
2022/06/20 06:41:31;;;;;;;10.10;1.83;;;20.50;65.20;;;;;;5044323;28;20423;-67
2022/06/20 06:43:58;;;;;;;11.45;1.95;;;20.50;65.20;;;;;;5059645;28;20049;-67
2022/06/20 06:46:31;;;;;;;6.72;1.83;;;20.50;65.20;;;;;;5047450;28;20626;-67
2022/06/20 06:48:56;;;;;;;8.50;2.20;;;20.50;65.20;;;;;;5031226;28;20032;-67
2022/06/20 06:51:38;;;;;;;11.27;2.05;;;20.50;65.20;;;;;;5047891;28;20440;-67
2022/06/20 06:54:26;;;;;;;12.18;2.10;;;20.50;65.20;;;;;;5043522;28;20024;-67
2022/06/20 06:56:52;;;;;;;11.45;2.13;;;20.50;65.20;;;;;;5052444;28;20041;-67
2022/06/20 06:59:21;;;;;;;12.40;2.08;;;20.50;65.20;;;;;;5048589;28;20619;-67
2022/06/20 07:01:48;;;;;;;7.45;1.70;;;20.50;65.20;;;;;;5062514;28;20039;-67
2022/06/20 07:04:34;;;;;;;9.13;1.92;;;20.50;65.20;;;;;;5061482;28;20028;-67
2022/06/20 07:07:09;;;;;;;12.93;1.80;;;20.50;65.20;;;;;;5045410;28;20515;-67
2022/06/20 07:09:36;;;;;;;9.27;1.77;;;20.40;65.10;;;;;;5061008;28;20171;-67
2022/06/20 07:12:27;;;;;;;9.40;1.73;;;20.50;65.30;;;;;;5048469;28;20079;-67
2022/06/20 07:15:16;;;;;;;7.75;1.70;;;20.50;65.10;;;;;;5046409;28;20037;-67
2022/06/20 07:17:51;;;;;;;9.85;2.00;;;20.50;65.20;;;;;;5045660;28;20025;-67
2022/06/20 07:20:17;;;;;;;10.32;1.98;;;20.40;65.20;;;;;;5047827;28;20029;-67
2022/06/20 07:22:43;;;;;;;7.50;1.90;;;20.50;65.20;;;;;;5062232;28;20060;-67
2022/06/20 07:25:18;;;;;;;11.40;2.03;;;20.40;65.10;;;;;;5046008;28;20055;-67
2022/06/20 07:27:48;;;;;;;8.75;1.80;;;20.40;65.10;;;;;;5044584;28;20086;-67
2022/06/20 07:30:16;;;;;;;8.18;2.08;;;20.40;65.10;;;;;;5048467;28;20068;-67
2022/06/20 07:32:46;;;;;;;9.20;2.08;;;20.50;65.00;;;;;;5060917;28;20474;-67
2022/06/20 07:35:19;;;;;;;8.35;1.70;;;20.50;65.10;;;;;;5061965;28;20032;-67
2022/06/20 07:37:46;;;;;;;9.57;2.15;;;20.50;65.10;;;;;;5062445;28;20021;-67
2022/06/20 07:40:23;;;;;;;6.70;1.88;;;20.40;65.00;;;;;;5047228;28;20036;-67
2022/06/20 07:42:49;;;;;;;8.82;1.70;;;20.40;65.10;;;;;;5061275;28;20048;-67
2022/06/20 07:45:22;;;;;;;7.05;1.90;;;20.40;65.10;;;;;;5032177;28;20052;-67
2022/06/20 07:47:59;;;;;;;7.47;1.80;;;20.50;65.10;;;;;;5028516;28;20033;-67
2022/06/20 07:50:43;;;;;;;9.18;2.15;;;20.40;65.20;;;;;;5014800;28;20041;-67
2022/06/20 07:53:13;;;;;;;9.43;2.05;;;20.40;65.00;;;;;;5011087;28;20025;-67
2022/06/20 07:55:49;;;;;;;6.63;1.55;;;20.40;65.10;;;;;;5023464;28;20028;-67
2022/06/20 07:58:17;;;;;;;9.07;1.92;;;20.40;65.00;;;;;;5019491;28;20033;-67
2022/06/20 08:00:49;;;;;;;9.93;1.88;;;20.40;65.00;;;;;;5022959;28;20025;-67
2022/06/20 08:03:15;;;;;;;11.50;1.95;;;20.40;65.00;;;;;;5027754;28;20086;-67
2022/06/20 08:05:44;;;;;;;8.60;1.80;;;20.40;65.10;;;;;;5025647;28;20420;-67
2022/06/20 08:08:33;;;;;;;7.57;1.70;;;20.40;65.00;;;;;;5022213;28;20518;-67
2022/06/20 08:11:40;;;;;;;8.23;1.98;;;20.40;64.90;;;;;;5026409;28;20180;-67
2022/06/20 08:14:02;;;;;;;6.78;1.90;;;20.40;64.90;;;;;;5025542;28;20047;-66
2022/06/20 08:16:28;;;;;;;7.22;1.88;;;20.50;64.90;;;;;;5022263;28;20112;-67
2022/06/20 08:18:54;;;;;;;7.90;2.03;;;20.40;64.80;;;;;;4989356;28;20032;-67
2022/06/20 08:21:21;;;;;;;6.28;1.70;;;20.50;65.00;;;;;;5008669;28;20401;-67
2022/06/20 08:23:50;;;;;;;8.18;1.88;;;20.40;64.90;;;;;;5026448;28;20148;-67
2022/06/20 08:26:22;;;;;;;8.25;1.70;;;20.40;64.80;;;;;;5006150;28;20410;-67
2022/06/20 08:28:55;;;;;;;7.57;1.88;;;20.40;64.80;;;;;;5018834;28;20586;-67
2022/06/20 08:31:24;;;;;;;6.72;1.88;;;20.40;64.80;;;;;;5018853;28;20033;-67
2022/06/20 08:34:11;;;;;;;8.68;2.08;;;20.40;64.90;;;;;;5025452;28;20062;-67
2022/06/20 08:36:48;;;;;;;10.00;2.35;;;20.40;64.80;;;;;;5008241;28;20036;-67
2022/06/20 08:39:18;;;;;;;9.82;2.08;;;20.40;64.80;;;;;;5026045;28;20034;-67
2022/06/20 08:41:56;;;;;;;7.40;1.70;;;20.40;64.80;;;;;;5024584;28;20033;-67
2022/06/20 08:44:32;;;;;;;8.52;1.85;;;20.40;64.80;;;;;;5025885;28;20056;-66
2022/06/20 08:47:25;;;;;;;8.82;1.90;;;20.40;64.80;;;;;;5023732;28;20021;-67
2022/06/20 08:50:28;;;;;;;8.38;1.75;;;20.40;64.70;;;;;;5026367;28;20037;-67
2022/06/20 08:53:08;;;;;;;5.88;1.50;;;20.40;64.80;;;;;;5025194;28;20498;-67
2022/06/20 08:55:55;;;;;;;8.20;1.90;;;20.40;64.70;;;;;;5026048;28;20050;-67
2022/06/20 08:58:40;;;;;;;7.10;1.83;;;20.40;64.70;;;;;;5025452;28;20017;-67
2022/06/20 09:01:40;;;;;;;8.23;1.88;;;20.40;64.70;;;;;;5025112;28;20078;-67
2022/06/20 09:04:19;;;;;;;5.97;1.52;;;20.40;64.60;;;;;;4944559;28;20412;-67
2022/06/20 09:06:57;;;;;;;8.10;1.88;;;20.40;64.60;;;;;;4928395;29;20042;-67
2022/06/20 09:09:37;;;;;;;6.40;1.83;;;20.40;64.70;;;;;;4945103;28;20040;-67
2022/06/20 09:12:14;;;;;;;6.97;1.65;;;20.40;64.70;;;;;;4946950;29;20034;-67
2022/06/20 09:15:04;;;;;;;4.60;1.73;;;20.40;64.70;;;;;;4941749;28;20039;-67
2022/06/20 09:17:55;;;;;;;8.13;1.80;;;20.40;64.70;;;;;;4942514;28;20077;-67
2022/06/20 09:20:40;;;;;;;7.93;1.70;;;20.40;65.70;;;;;;4926505;29;20057;-67
2022/06/20 09:23:21;;;;;;;5.93;1.60;;;20.40;64.70;;;;;;4942602;29;20031;-67
2022/06/20 09:26:08;;;;;;;6.38;1.70;;;20.40;64.70;;;;;;4942585;28;20397;-67
2022/06/20 09:28:55;;;;;;;7.72;1.77;;;20.40;64.50;;;;;;4942493;29;20420;-67
2022/06/20 09:32:04;;;;;;;5.20;1.70;;;20.40;64.60;;;;;;4927590;29;20153;-67
2022/06/20 09:34:49;;;;;;;6.68;1.70;;;20.40;64.70;;;;;;4868882;29;20048;-67
2022/06/20 09:37:43;;;;;;;4.70;1.70;;;20.40;64.70;;;;;;4868958;29;20113;-67
2022/06/20 09:40:36;;;;;;;6.90;1.70;;;20.40;64.60;;;;;;4858490;29;20040;-67
2022/06/20 09:43:14;;;;;;;7.60;1.65;;;20.40;64.50;;;;;;4906095;29;20024;-67
2022/06/20 09:45:58;;;;;;;5.82;1.70;;;20.40;64.70;;;;;;4898978;29;20043;-67
2022/06/20 09:49:06;;;;;;;3.97;1.50;;;20.40;64.60;;;;;;4900291;29;20541;-67
2022/06/20 09:51:39;;;;;;;6.38;1.80;;;20.40;64.50;;;;;;4898047;29;20712;-67
2022/06/20 09:54:05;;;;;;;7.05;2.03;;;20.40;64.50;;;;;;4900742;29;20196;-67
2022/06/20 09:56:41;;;;;;;9.23;1.95;;;20.40;64.50;;;;;;4914848;29;20552;-67
2022/06/20 09:59:26;;;;;;;6.72;1.90;;;20.40;64.50;;;;;;4915528;29;20036;-67
2022/06/20 10:02:25;;;;;;;5.93;1.80;;;20.40;64.50;;;;;;4913720;29;20024;-67
2022/06/20 10:05:18;;;;;;;6.03;1.83;;;20.40;64.50;;;;;;4899249;29;20536;-67
2022/06/20 10:08:32;;;;;;;8.15;1.95;;;20.40;64.40;;;;;;4910224;29;20039;-67
2022/06/20 10:11:03;;;;;;;7.75;1.98;;;20.40;64.40;;;;;;4948305;28;20088;-67
2022/06/20 10:13:31;;;;;;;4.88;1.60;;;20.40;64.50;;;;;;4970079;28;20399;-67
2022/06/20 10:16:14;;;;;;;5.05;1.65;;;20.40;65.50;;;;;;4969721;28;25423;-67
2022/06/20 10:19:03;;;;;;;4.82;1.58;;;20.40;64.40;;;;;;5032540;28;20104;-67
2022/06/20 10:21:52;;;;;;;5.75;1.70;;;20.40;64.30;;;;;;5037508;28;20037;-67
2022/06/20 10:25:11;;;;;;;4.72;1.65;;;20.40;64.40;;;;;;5017433;28;20564;-67
2022/06/20 10:27:53;;;;;;;6.25;1.70;;;20.50;64.40;;;;;;5013704;28;20665;-67
2022/06/20 10:30:22;;;;;;;6.97;1.88;;;20.50;64.30;;;;;;5000335;28;20049;-67
2022/06/20 10:33:13;;;;;;;7.53;1.67;;;20.40;64.20;;;;;;5012920;28;20053;-67
2022/06/20 10:35:52;;;;;;;4.53;1.60;;;20.40;64.20;;;;;;4996688;28;20058;-67
2022/06/20 10:38:36;;;;;;;5.00;1.58;;;20.40;64.20;;;;;;5011849;28;20041;-67
2022/06/20 10:41:09;;;;;;;6.60;1.97;;;20.50;64.20;;;;;;5010771;28;20037;-67
2022/06/20 10:43:45;;;;;;;5.93;2.13;;;20.50;64.20;;;;;;5017145;28;20116;-67
2022/06/20 10:46:15;;;;;;;4.93;1.80;;;20.50;64.20;;;;;;5025820;28;20025;-67
2022/06/20 10:48:52;;;;;;;6.80;1.65;;;20.40;64.20;;;;;;5045403;28;21021;-67
2022/06/20 10:51:40;;;;;;;7.97;1.88;;;20.50;64.10;;;;;;5046968;28;20029;-67
2022/06/20 10:54:14;;;;;;;6.65;1.70;;;20.50;64.20;;;;;;5047103;28;20051;-67
2022/06/20 10:57:04;;;;;;;6.65;1.80;;;20.50;64.10;;;;;;5044308;28;20033;-67
2022/06/20 10:59:33;;;;;;;5.75;1.75;;;20.50;64.10;;;;;;5044888;28;20599;-67
2022/06/20 11:02:14;;;;;;;6.38;1.75;;;20.50;64.10;;;;;;5047363;28;20044;-67
2022/06/20 11:04:47;;;;;;;7.20;1.95;;;20.50;64.10;;;;;;5061781;28;20082;-67
2022/06/20 11:07:42;;;;;;;4.80;1.70;;;20.50;64.10;;;;;;5057843;28;20043;-67
2022/06/20 11:10:46;;;;;;;5.00;1.60;;;20.50;64.00;;;;;;5044845;28;20046;-67
2022/06/20 11:13:37;;;;;;;5.53;1.80;;;20.50;64.30;;;;;;5057415;28;20674;-67
2022/06/20 11:16:29;;;;;;;6.03;1.80;;;20.50;64.00;;;;;;5044526;28;20029;-67
2022/06/20 11:18:57;;;;;;;5.22;1.70;;;20.50;64.00;;;;;;5020641;28;20460;-67
2022/06/20 11:21:22;;;;;;;10.38;1.73;;;20.50;64.00;;;;;;5020359;28;20041;-67
2022/06/20 11:23:48;;;;;;;10.02;1.77;;;20.60;64.20;;;;;;5023364;28;20056;-67
2022/06/20 11:26:29;;;;;;;9.73;2.42;;;20.60;64.30;;;;;;5023142;28;20176;-68
2022/06/20 11:29:13;;;;;;;9.68;2.00;;;20.60;64.30;;;;;;5021619;28;20084;-67
2022/06/20 11:32:09;;;;;;;10.23;1.73;;;20.60;64.20;;;;;;5020913;28;20406;-65
2022/06/20 11:35:02;;;;;;;7.03;1.95;;;20.60;64.20;;;;;;5022030;28;20018;-66
2022/06/20 11:37:46;;;;;;;6.95;1.90;;;20.70;64.20;;;;;;5022876;28;20037;-65
2022/06/20 11:40:39;;;;;;;7.82;1.98;;;20.70;64.10;;;;;;5023806;28;20489;-65
2022/06/20 11:43:24;;;;;;;8.73;2.35;;;20.70;63.90;;;;;;5023990;28;20506;-65
2022/06/20 11:46:21;;;;;;;6.18;1.70;;;20.70;63.80;;;;;;5008167;28;20044;-65
2022/06/20 11:49:08;;;;;;;6.82;1.90;;;20.70;63.90;;;;;;5020579;28;20093;-65
2022/06/20 11:51:48;;;;;;;7.70;1.80;;;20.80;63.80;;;;;;5022249;28;20064;-68
2022/06/20 11:54:32;;;;;;;9.05;2.00;;;20.80;63.70;;;;;;5024936;28;20057;-68
2022/06/20 11:57:10;;;;;;;7.05;1.80;;;20.80;63.60;;;;;;5042874;28;20040;-70
2022/06/20 11:59:42;;;;;;;8.73;2.03;;;20.90;63.70;;;;;;5045662;28;20036;-70
2022/06/20 12:02:43;;;;;;;8.43;2.13;;;20.90;63.60;;;;;;5061497;28;20033;-71
2022/06/20 12:05:17;;;;;;;6.97;1.88;;;20.90;63.50;;;;;;5001176;28;20046;-70
2022/06/20 12:07:49;;;;;;;8.80;1.75;;;20.90;63.40;;;;;;4997990;28;20046;-71
2022/06/20 12:10:39;;;;;;;6.97;1.90;;;21.00;63.60;;;;;;4984131;28;20096;-70
2022/06/20 12:13:20;;;;;;;8.57;1.80;;;21.00;63.50;;;;;;5001452;28;20188;-71
2022/06/20 12:16:09;;;;;;;6.22;1.63;;;21.00;63.50;;;;;;4969476;28;20030;-69
2022/06/20 12:23:18;;;;;;;7.75;1.80;;;21.00;63.40;;;;;;4944141;29;20035;-68
2022/06/20 12:24:19;;;;;;;7.03;2.00;;;21.00;63.30;;;;;;4946837;28;20142;-66
2022/06/20 12:26:45;;;;;;;5.72;1.90;;;21.00;63.30;;;;;;4928651;29;20102;-67
2022/06/20 12:29:15;;;;;;;6.18;1.60;;;21.10;63.30;;;;;;4943834;29;20083;-67
2022/06/20 12:31:44;;;;;;;6.88;1.80;;;21.10;63.30;;;;;;4928606;29;20415;-66
2022/06/20 12:34:46;;;;;;;8.20;2.03;;;21.10;63.30;;;;;;4928307;29;20122;-68
2022/06/20 12:37:41;;;;;;;6.20;1.92;;;21.10;63.20;;;;;;4943849;28;20062;-66
2022/06/20 12:40:24;;;;;;;7.70;2.00;;;21.10;63.20;;;;;;4943310;28;20050;-66
2022/06/20 12:42:56;;;;;;;7.82;1.90;;;21.10;63.20;;;;;;4999932;28;20048;-68
2022/06/20 12:45:54;;;;;;;9.77;1.88;;;21.20;63.20;;;;;;4999853;28;20077;-66
2022/06/20 12:48:45;;;;;;;6.72;1.60;;;21.10;63.10;;;;;;5002252;28;20056;-66
2022/06/20 12:51:48;;;;;;;6.10;1.65;;;21.20;63.10;;;;;;5002661;28;20043;-66
2022/06/20 12:54:47;;;;;;;7.10;1.70;;;21.20;63.00;;;;;;5004797;28;20112;-66
2022/06/20 12:57:36;;;;;;;5.35;1.75;;;21.20;63.20;;;;;;5046432;28;20025;-65
2022/06/20 13:00:17;;;;;;;5.80;2.00;;;21.20;63.10;;;;;;5046288;28;20053;-65
2022/06/20 13:03:02;;;;;;;4.55;1.45;;;21.20;63.10;;;;;;5058225;28;20501;-66
2022/06/20 13:05:49;;;;;;;7.70;1.70;;;21.20;63.20;;;;;;5044077;28;20497;-67
2022/06/20 13:08:42;;;;;;;6.22;1.67;;;21.20;63.10;;;;;;5043462;28;20071;-67
2022/06/20 13:11:25;;;;;;;6.63;1.98;;;21.30;63.00;;;;;;5043321;28;20040;-67
2022/06/20 13:14:48;;;;;;;7.30;1.70;;;21.30;62.90;;;;;;5043937;28;20031;-67
2022/06/20 13:17:31;;;;;;;6.65;2.03;;;21.30;62.90;;;;;;5019153;28;20040;-66
2022/06/20 13:20:18;;;;;;;9.93;1.83;;;21.30;62.90;;;;;;5019434;28;20049;-67
2022/06/20 13:22:44;;;;;;;9.27;1.92;;;21.30;62.90;;;;;;5021159;28;20494;-67
2022/06/20 13:25:33;;;;;;;11.15;2.10;;;21.30;62.80;;;;;;5015359;28;20033;-67
2022/06/20 13:28:28;;;;;;;7.07;1.85;;;21.40;62.80;;;;;;4997376;28;20104;-67
2022/06/20 13:31:03;;;;;;;9.32;2.35;;;21.40;62.70;;;;;;5016467;28;20064;-67
2022/06/20 13:34:08;;;;;;;18.02;2.80;;;21.40;62.80;;;;;;5002301;28;20032;-67
2022/06/20 13:36:47;;;;;;;14.80;2.13;;;21.40;62.90;;;;;;5019021;28;20099;-67
2022/06/20 13:39:23;;;;;;;16.02;2.33;;;21.50;62.80;;;;;;4999023;28;20056;-67
2022/06/20 13:42:03;;;;;;;11.50;2.20;;;21.50;62.80;;;;;;5007897;28;20050;-67
2022/06/20 13:44:54;;;;;;;10.15;2.30;;;21.50;62.80;;;;;;4999122;28;20049;-67